sensor_id;sensor_type;location;lat;lon;timestamp;P1;durP1;ratioP1;P2;durP2;ratioP2
3006;SDS011;1513;47.650;10.720;2022-07-23T00:00:33;11.37;;;9.57;;
3006;SDS011;1513;47.650;10.720;2022-07-23T00:03:36;10.67;;;9.30;;
3006;SDS011;1513;47.650;10.720;2022-07-23T00:06:40;15.33;;;11.20;;
3006;SDS011;1513;47.650;10.720;2022-07-23T00:09:44;14.47;;;11.33;;
3006;SDS011;1513;47.650;10.720;2022-07-23T00:12:47;14.70;;;10.90;;
3006;SDS011;1513;47.650;10.720;2022-07-23T00:15:50;13.97;;;11.23;;
3006;SDS011;1513;47.650;10.720;2022-07-23T00:18:54;13.47;;;11.33;;
3006;SDS011;1513;47.650;10.720;2022-07-23T00:21:57;14.83;;;10.93;;
3006;SDS011;1513;47.650;10.720;2022-07-23T00:25:01;15.43;;;11.37;;
3006;SDS011;1513;47.650;10.720;2022-07-23T00:28:05;14.30;;;11.43;;
3006;SDS011;1513;47.650;10.720;2022-07-23T00:31:09;20.47;;;12.40;;
3006;SDS011;1513;47.650;10.720;2022-07-23T00:34:12;16.87;;;11.13;;
3006;SDS011;1513;47.650;10.720;2022-07-23T00:37:16;23.00;;;10.47;;
3006;SDS011;1513;47.650;10.720;2022-07-23T00:40:19;13.60;;;9.00;;
3006;SDS011;1513;47.650;10.720;2022-07-23T00:43:23;14.30;;;9.37;;
3006;SDS011;1513;47.650;10.720;2022-07-23T00:46:27;16.90;;;9.90;;
3006;SDS011;1513;47.650;10.720;2022-07-23T00:49:31;12.50;;;9.33;;
3006;SDS011;1513;47.650;10.720;2022-07-23T00:52:35;11.73;;;8.97;;
3006;SDS011;1513;47.650;10.720;2022-07-23T00:55:40;12.30;;;9.20;;
3006;SDS011;1513;47.650;10.720;2022-07-23T00:58:43;13.33;;;10.03;;
3006;SDS011;1513;47.650;10.720;2022-07-23T01:01:47;14.10;;;10.10;;
3006;SDS011;1513;47.650;10.720;2022-07-23T01:04:51;11.53;;;8.83;;
3006;SDS011;1513;47.650;10.720;2022-07-23T01:07:55;11.57;;;9.73;;
3006;SDS011;1513;47.650;10.720;2022-07-23T01:10:59;14.93;;;9.70;;
3006;SDS011;1513;47.650;10.720;2022-07-23T01:14:12;15.17;;;8.70;;
3006;SDS011;1513;47.650;10.720;2022-07-23T01:17:19;11.07;;;9.43;;
3006;SDS011;1513;47.650;10.720;2022-07-23T01:20:23;11.60;;;9.20;;
3006;SDS011;1513;47.650;10.720;2022-07-23T01:23:27;11.77;;;9.53;;
3006;SDS011;1513;47.650;10.720;2022-07-23T01:26:30;15.83;;;10.10;;
3006;SDS011;1513;47.650;10.720;2022-07-23T01:29:33;13.13;;;9.00;;
3006;SDS011;1513;47.650;10.720;2022-07-23T01:32:37;14.37;;;10.10;;
3006;SDS011;1513;47.650;10.720;2022-07-23T01:35:40;14.13;;;9.93;;
3006;SDS011;1513;47.650;10.720;2022-07-23T01:38:44;12.10;;;8.83;;
3006;SDS011;1513;47.650;10.720;2022-07-23T01:41:47;18.03;;;9.33;;
3006;SDS011;1513;47.650;10.720;2022-07-23T01:44:51;14.60;;;9.60;;
3006;SDS011;1513;47.650;10.720;2022-07-23T01:47:54;12.07;;;9.43;;
3006;SDS011;1513;47.650;10.720;2022-07-23T01:50:58;13.83;;;9.00;;
3006;SDS011;1513;47.650;10.720;2022-07-23T01:54:01;14.80;;;9.77;;
3006;SDS011;1513;47.650;10.720;2022-07-23T01:57:05;16.67;;;9.63;;
3006;SDS011;1513;47.650;10.720;2022-07-23T02:00:10;16.43;;;9.30;;
3006;SDS011;1513;47.650;10.720;2022-07-23T02:03:14;11.80;;;9.23;;
3006;SDS011;1513;47.650;10.720;2022-07-23T02:06:17;11.80;;;9.50;;
3006;SDS011;1513;47.650;10.720;2022-07-23T02:09:21;15.70;;;9.83;;
3006;SDS011;1513;47.650;10.720;2022-07-23T02:12:25;13.80;;;9.17;;
3006;SDS011;1513;47.650;10.720;2022-07-23T02:15:29;12.00;;;9.20;;
3006;SDS011;1513;47.650;10.720;2022-07-23T02:18:33;12.53;;;9.30;;
3006;SDS011;1513;47.650;10.720;2022-07-23T02:21:36;14.23;;;9.90;;
3006;SDS011;1513;47.650;10.720;2022-07-23T02:24:40;11.97;;;9.13;;
3006;SDS011;1513;47.650;10.720;2022-07-23T02:27:44;10.80;;;9.30;;
3006;SDS011;1513;47.650;10.720;2022-07-23T02:30:47;12.13;;;8.70;;
3006;SDS011;1513;47.650;10.720;2022-07-23T02:33:50;12.57;;;10.10;;
3006;SDS011;1513;47.650;10.720;2022-07-23T02:36:54;15.77;;;9.60;;
3006;SDS011;1513;47.650;10.720;2022-07-23T02:39:57;13.93;;;10.50;;
3006;SDS011;1513;47.650;10.720;2022-07-23T02:43:01;14.77;;;9.60;;
3006;SDS011;1513;47.650;10.720;2022-07-23T02:46:04;15.60;;;9.50;;
3006;SDS011;1513;47.650;10.720;2022-07-23T02:49:08;11.90;;;9.00;;
3006;SDS011;1513;47.650;10.720;2022-07-23T02:52:11;12.70;;;9.30;;
3006;SDS011;1513;47.650;10.720;2022-07-23T02:55:14;17.67;;;11.17;;
3006;SDS011;1513;47.650;10.720;2022-07-23T02:58:18;17.07;;;10.50;;
3006;SDS011;1513;47.650;10.720;2022-07-23T03:01:21;20.87;;;10.90;;
3006;SDS011;1513;47.650;10.720;2022-07-23T03:04:26;13.83;;;9.13;;
3006;SDS011;1513;47.650;10.720;2022-07-23T03:07:29;13.27;;;10.47;;
3006;SDS011;1513;47.650;10.720;2022-07-23T03:10:33;13.57;;;8.90;;
3006;SDS011;1513;47.650;10.720;2022-07-23T03:13:37;16.07;;;10.20;;
3006;SDS011;1513;47.650;10.720;2022-07-23T03:16:41;14.70;;;9.63;;
3006;SDS011;1513;47.650;10.720;2022-07-23T03:19:45;15.90;;;9.23;;
3006;SDS011;1513;47.650;10.720;2022-07-23T03:22:48;11.20;;;9.37;;
3006;SDS011;1513;47.650;10.720;2022-07-23T03:25:51;11.20;;;8.57;;
3006;SDS011;1513;47.650;10.720;2022-07-23T03:28:55;19.03;;;9.60;;
3006;SDS011;1513;47.650;10.720;2022-07-23T03:31:58;13.43;;;9.80;;
3006;SDS011;1513;47.650;10.720;2022-07-23T03:35:02;14.63;;;10.20;;
3006;SDS011;1513;47.650;10.720;2022-07-23T03:38:06;12.43;;;9.53;;
3006;SDS011;1513;47.650;10.720;2022-07-23T03:41:09;14.30;;;10.20;;
3006;SDS011;1513;47.650;10.720;2022-07-23T03:44:13;13.37;;;10.40;;
3006;SDS011;1513;47.650;10.720;2022-07-23T03:47:16;12.37;;;9.93;;
3006;SDS011;1513;47.650;10.720;2022-07-23T03:50:24;11.83;;;8.90;;
3006;SDS011;1513;47.650;10.720;2022-07-23T03:53:28;11.20;;;8.70;;
3006;SDS011;1513;47.650;10.720;2022-07-23T03:56:31;12.80;;;10.20;;
3006;SDS011;1513;47.650;10.720;2022-07-23T03:59:34;13.57;;;9.43;;
3006;SDS011;1513;47.650;10.720;2022-07-23T04:02:37;11.77;;;9.23;;
3006;SDS011;1513;47.650;10.720;2022-07-23T04:05:40;13.00;;;8.77;;
3006;SDS011;1513;47.650;10.720;2022-07-23T04:08:44;13.60;;;9.60;;
3006;SDS011;1513;47.650;10.720;2022-07-23T04:11:47;12.50;;;9.13;;
3006;SDS011;1513;47.650;10.720;2022-07-23T04:14:51;12.33;;;9.83;;
3006;SDS011;1513;47.650;10.720;2022-07-23T04:17:55;11.23;;;8.80;;
3006;SDS011;1513;47.650;10.720;2022-07-23T04:20:58;11.93;;;9.37;;
3006;SDS011;1513;47.650;10.720;2022-07-23T04:24:02;11.50;;;8.70;;
3006;SDS011;1513;47.650;10.720;2022-07-23T04:27:06;9.87;;;8.20;;
3006;SDS011;1513;47.650;10.720;2022-07-23T04:30:09;12.80;;;8.43;;
3006;SDS011;1513;47.650;10.720;2022-07-23T04:33:13;9.97;;;7.90;;
3006;SDS011;1513;47.650;10.720;2022-07-23T04:36:17;8.97;;;7.37;;
3006;SDS011;1513;47.650;10.720;2022-07-23T04:39:20;10.37;;;7.60;;
3006;SDS011;1513;47.650;10.720;2022-07-23T04:42:24;12.97;;;9.73;;
3006;SDS011;1513;47.650;10.720;2022-07-23T04:45:27;10.73;;;9.43;;
3006;SDS011;1513;47.650;10.720;2022-07-23T04:48:31;9.43;;;7.83;;
3006;SDS011;1513;47.650;10.720;2022-07-23T04:51:34;14.33;;;10.33;;
3006;SDS011;1513;47.650;10.720;2022-07-23T04:54:38;10.70;;;8.97;;
3006;SDS011;1513;47.650;10.720;2022-07-23T04:57:42;10.90;;;9.10;;
3006;SDS011;1513;47.650;10.720;2022-07-23T05:00:45;12.97;;;9.70;;
3006;SDS011;1513;47.650;10.720;2022-07-23T05:03:49;12.83;;;9.10;;
3006;SDS011;1513;47.650;10.720;2022-07-23T05:06:52;17.20;;;10.30;;
3006;SDS011;1513;47.650;10.720;2022-07-23T05:09:56;13.20;;;10.20;;
3006;SDS011;1513;47.650;10.720;2022-07-23T05:12:59;12.50;;;10.27;;
3006;SDS011;1513;47.650;10.720;2022-07-23T05:16:02;15.43;;;10.20;;
3006;SDS011;1513;47.650;10.720;2022-07-23T05:19:07;13.80;;;10.07;;
3006;SDS011;1513;47.650;10.720;2022-07-23T05:22:10;16.23;;;10.60;;
3006;SDS011;1513;47.650;10.720;2022-07-23T05:25:13;15.57;;;11.37;;
3006;SDS011;1513;47.650;10.720;2022-07-23T05:28:17;14.97;;;10.90;;
3006;SDS011;1513;47.650;10.720;2022-07-23T05:31:20;14.63;;;10.07;;
3006;SDS011;1513;47.650;10.720;2022-07-23T05:34:24;12.70;;;9.57;;
3006;SDS011;1513;47.650;10.720;2022-07-23T05:37:27;11.70;;;8.90;;
3006;SDS011;1513;47.650;10.720;2022-07-23T05:40:31;10.63;;;8.10;;
3006;SDS011;1513;47.650;10.720;2022-07-23T05:43:35;10.40;;;8.10;;
3006;SDS011;1513;47.650;10.720;2022-07-23T05:46:39;9.50;;;7.80;;
3006;SDS011;1513;47.650;10.720;2022-07-23T05:49:42;10.37;;;6.60;;
3006;SDS011;1513;47.650;10.720;2022-07-23T05:52:46;11.17;;;7.37;;
3006;SDS011;1513;47.650;10.720;2022-07-23T05:55:50;9.80;;;8.10;;
3006;SDS011;1513;47.650;10.720;2022-07-23T05:58:53;13.37;;;9.50;;
3006;SDS011;1513;47.650;10.720;2022-07-23T06:01:57;14.00;;;10.57;;
3006;SDS011;1513;47.650;10.720;2022-07-23T06:05:00;15.60;;;10.47;;
3006;SDS011;1513;47.650;10.720;2022-07-23T06:08:03;9.73;;;8.20;;
3006;SDS011;1513;47.650;10.720;2022-07-23T06:11:07;14.70;;;9.20;;
3006;SDS011;1513;47.650;10.720;2022-07-23T06:14:11;12.53;;;9.20;;
3006;SDS011;1513;47.650;10.720;2022-07-23T06:17:14;11.10;;;9.63;;
3006;SDS011;1513;47.650;10.720;2022-07-23T06:20:18;15.07;;;9.20;;
3006;SDS011;1513;47.650;10.720;2022-07-23T06:23:21;13.40;;;9.17;;
3006;SDS011;1513;47.650;10.720;2022-07-23T06:26:25;13.47;;;9.50;;
3006;SDS011;1513;47.650;10.720;2022-07-23T06:29:28;11.10;;;9.70;;
3006;SDS011;1513;47.650;10.720;2022-07-23T06:32:31;9.10;;;7.60;;
3006;SDS011;1513;47.650;10.720;2022-07-23T06:35:35;14.10;;;9.23;;
3006;SDS011;1513;47.650;10.720;2022-07-23T06:38:38;29.17;;;19.27;;
3006;SDS011;1513;47.650;10.720;2022-07-23T06:41:42;24.20;;;13.83;;
3006;SDS011;1513;47.650;10.720;2022-07-23T06:44:45;14.50;;;11.63;;
3006;SDS011;1513;47.650;10.720;2022-07-23T06:47:49;16.00;;;10.80;;
3006;SDS011;1513;47.650;10.720;2022-07-23T06:50:52;14.80;;;10.77;;
3006;SDS011;1513;47.650;10.720;2022-07-23T06:53:57;12.23;;;10.10;;
3006;SDS011;1513;47.650;10.720;2022-07-23T06:57:01;11.67;;;9.30;;
3006;SDS011;1513;47.650;10.720;2022-07-23T07:00:05;15.00;;;10.47;;
3006;SDS011;1513;47.650;10.720;2022-07-23T07:03:09;10.73;;;9.20;;
3006;SDS011;1513;47.650;10.720;2022-07-23T07:06:13;10.60;;;8.93;;
3006;SDS011;1513;47.650;10.720;2022-07-23T07:09:17;12.93;;;9.37;;
3006;SDS011;1513;47.650;10.720;2022-07-23T07:12:20;10.83;;;8.87;;
3006;SDS011;1513;47.650;10.720;2022-07-23T07:15:23;10.77;;;8.60;;
3006;SDS011;1513;47.650;10.720;2022-07-23T07:18:27;9.50;;;8.40;;
3006;SDS011;1513;47.650;10.720;2022-07-23T07:21:30;12.50;;;8.83;;
3006;SDS011;1513;47.650;10.720;2022-07-23T07:24:34;9.40;;;7.60;;
3006;SDS011;1513;47.650;10.720;2022-07-23T07:27:37;8.90;;;7.73;;
3006;SDS011;1513;47.650;10.720;2022-07-23T07:30:40;10.20;;;8.53;;
3006;SDS011;1513;47.650;10.720;2022-07-23T07:33:44;9.93;;;7.17;;
3006;SDS011;1513;47.650;10.720;2022-07-23T07:36:48;9.20;;;7.53;;
3006;SDS011;1513;47.650;10.720;2022-07-23T07:39:53;8.47;;;7.30;;
3006;SDS011;1513;47.650;10.720;2022-07-23T07:42:56;9.37;;;7.00;;
3006;SDS011;1513;47.650;10.720;2022-07-23T07:46:00;10.00;;;6.80;;
3006;SDS011;1513;47.650;10.720;2022-07-23T07:49:03;7.40;;;6.60;;
3006;SDS011;1513;47.650;10.720;2022-07-23T07:52:07;8.03;;;6.60;;
3006;SDS011;1513;47.650;10.720;2022-07-23T07:55:10;6.83;;;6.17;;
3006;SDS011;1513;47.650;10.720;2022-07-23T07:58:14;8.90;;;7.03;;
3006;SDS011;1513;47.650;10.720;2022-07-23T08:01:18;9.10;;;6.73;;
3006;SDS011;1513;47.650;10.720;2022-07-23T08:04:22;10.33;;;8.10;;
3006;SDS011;1513;47.650;10.720;2022-07-23T08:07:25;10.63;;;7.20;;
3006;SDS011;1513;47.650;10.720;2022-07-23T08:10:28;8.20;;;7.40;;
3006;SDS011;1513;47.650;10.720;2022-07-23T08:13:33;8.73;;;7.17;;
3006;SDS011;1513;47.650;10.720;2022-07-23T08:16:37;7.80;;;7.00;;
3006;SDS011;1513;47.650;10.720;2022-07-23T08:19:40;8.70;;;6.70;;
3006;SDS011;1513;47.650;10.720;2022-07-23T08:22:45;7.70;;;6.70;;
3006;SDS011;1513;47.650;10.720;2022-07-23T08:25:51;7.97;;;6.33;;
3006;SDS011;1513;47.650;10.720;2022-07-23T08:28:55;8.07;;;6.73;;
3006;SDS011;1513;47.650;10.720;2022-07-23T08:35:59;8.20;;;6.50;;
3006;SDS011;1513;47.650;10.720;2022-07-23T08:39:05;11.13;;;6.90;;
3006;SDS011;1513;47.650;10.720;2022-07-23T08:42:08;8.50;;;6.20;;
3006;SDS011;1513;47.650;10.720;2022-07-23T08:45:12;7.70;;;6.30;;
3006;SDS011;1513;47.650;10.720;2022-07-23T08:48:20;7.20;;;5.93;;
3006;SDS011;1513;47.650;10.720;2022-07-23T08:51:26;9.57;;;6.43;;
3006;SDS011;1513;47.650;10.720;2022-07-23T08:54:31;9.40;;;6.07;;
3006;SDS011;1513;47.650;10.720;2022-07-23T08:57:35;7.50;;;6.57;;
3006;SDS011;1513;47.650;10.720;2022-07-23T09:00:38;7.20;;;6.23;;
3006;SDS011;1513;47.650;10.720;2022-07-23T09:03:42;8.63;;;7.03;;
3006;SDS011;1513;47.650;10.720;2022-07-23T09:06:47;9.10;;;6.67;;
3006;SDS011;1513;47.650;10.720;2022-07-23T09:10:07;9.13;;;6.67;;
3006;SDS011;1513;47.650;10.720;2022-07-23T09:16:38;8.30;;;7.07;;
3006;SDS011;1513;47.650;10.720;2022-07-23T09:19:42;10.37;;;7.00;;
3006;SDS011;1513;47.650;10.720;2022-07-23T09:22:47;9.13;;;7.40;;
3006;SDS011;1513;47.650;10.720;2022-07-23T09:25:51;9.97;;;7.50;;
3006;SDS011;1513;47.650;10.720;2022-07-23T09:28:56;11.40;;;8.07;;
3006;SDS011;1513;47.650;10.720;2022-07-23T09:32:05;8.87;;;7.87;;
3006;SDS011;1513;47.650;10.720;2022-07-23T09:35:10;13.13;;;8.00;;
3006;SDS011;1513;47.650;10.720;2022-07-23T09:38:14;9.40;;;7.80;;
3006;SDS011;1513;47.650;10.720;2022-07-23T09:41:18;10.90;;;7.70;;
3006;SDS011;1513;47.650;10.720;2022-07-23T09:48:16;10.20;;;7.63;;
3006;SDS011;1513;47.650;10.720;2022-07-23T09:51:20;10.43;;;8.30;;
3006;SDS011;1513;47.650;10.720;2022-07-23T09:54:39;9.13;;;7.70;;
3006;SDS011;1513;47.650;10.720;2022-07-23T09:57:43;11.57;;;8.43;;
3006;SDS011;1513;47.650;10.720;2022-07-23T10:00:48;9.00;;;8.10;;
3006;SDS011;1513;47.650;10.720;2022-07-23T10:03:52;11.20;;;8.50;;
3006;SDS011;1513;47.650;10.720;2022-07-23T10:06:57;10.27;;;8.03;;
3006;SDS011;1513;47.650;10.720;2022-07-23T10:10:01;9.70;;;8.70;;
3006;SDS011;1513;47.650;10.720;2022-07-23T10:13:06;10.57;;;8.70;;
3006;SDS011;1513;47.650;10.720;2022-07-23T10:16:29;10.20;;;9.10;;
3006;SDS011;1513;47.650;10.720;2022-07-23T10:19:33;13.40;;;9.33;;
3006;SDS011;1513;47.650;10.720;2022-07-23T10:22:38;14.63;;;10.40;;
3006;SDS011;1513;47.650;10.720;2022-07-23T10:25:51;11.30;;;9.13;;
3006;SDS011;1513;47.650;10.720;2022-07-23T10:29:04;13.17;;;10.27;;
3006;SDS011;1513;47.650;10.720;2022-07-23T10:32:38;16.73;;;10.67;;
3006;SDS011;1513;47.650;10.720;2022-07-23T10:36:19;16.37;;;10.40;;
3006;SDS011;1513;47.650;10.720;2022-07-23T10:39:44;17.73;;;12.23;;
3006;SDS011;1513;47.650;10.720;2022-07-23T10:42:51;13.40;;;10.83;;
3006;SDS011;1513;47.650;10.720;2022-07-23T10:49:34;13.53;;;10.67;;
3006;SDS011;1513;47.650;10.720;2022-07-23T10:52:38;12.30;;;10.10;;
3006;SDS011;1513;47.650;10.720;2022-07-23T10:55:42;12.17;;;10.57;;
3006;SDS011;1513;47.650;10.720;2022-07-23T10:58:47;12.67;;;10.60;;
3006;SDS011;1513;47.650;10.720;2022-07-23T11:01:52;13.70;;;11.13;;
3006;SDS011;1513;47.650;10.720;2022-07-23T11:04:58;11.20;;;8.73;;
3006;SDS011;1513;47.650;10.720;2022-07-23T11:11:12;11.23;;;9.23;;
3006;SDS011;1513;47.650;10.720;2022-07-23T11:14:17;9.80;;;8.80;;
3006;SDS011;1513;47.650;10.720;2022-07-23T11:18:03;8.93;;;8.03;;
3006;SDS011;1513;47.650;10.720;2022-07-23T11:24:31;9.03;;;8.07;;
3006;SDS011;1513;47.650;10.720;2022-07-23T11:27:54;12.70;;;7.33;;
3006;SDS011;1513;47.650;10.720;2022-07-23T11:30:58;9.10;;;6.23;;
3006;SDS011;1513;47.650;10.720;2022-07-23T11:37:36;6.40;;;5.77;;
3006;SDS011;1513;47.650;10.720;2022-07-23T11:40:41;6.97;;;6.27;;
3006;SDS011;1513;47.650;10.720;2022-07-23T11:43:47;8.53;;;6.33;;
3006;SDS011;1513;47.650;10.720;2022-07-23T11:46:57;6.23;;;5.50;;
3006;SDS011;1513;47.650;10.720;2022-07-23T11:50:03;6.87;;;5.63;;
3006;SDS011;1513;47.650;10.720;2022-07-23T11:53:09;7.20;;;5.83;;
3006;SDS011;1513;47.650;10.720;2022-07-23T11:56:13;6.60;;;5.87;;
3006;SDS011;1513;47.650;10.720;2022-07-23T11:59:16;8.57;;;6.73;;
3006;SDS011;1513;47.650;10.720;2022-07-23T12:02:20;9.10;;;6.63;;
3006;SDS011;1513;47.650;10.720;2022-07-23T12:05:25;10.07;;;7.20;;
3006;SDS011;1513;47.650;10.720;2022-07-23T12:08:31;10.10;;;6.83;;
3006;SDS011;1513;47.650;10.720;2022-07-23T12:11:35;8.00;;;6.97;;
3006;SDS011;1513;47.650;10.720;2022-07-23T12:14:49;7.67;;;6.60;;
3006;SDS011;1513;47.650;10.720;2022-07-23T12:17:57;7.13;;;6.50;;
3006;SDS011;1513;47.650;10.720;2022-07-23T12:21:05;7.67;;;6.87;;
3006;SDS011;1513;47.650;10.720;2022-07-23T12:24:09;8.50;;;6.77;;
3006;SDS011;1513;47.650;10.720;2022-07-23T12:27:14;7.67;;;6.53;;
3006;SDS011;1513;47.650;10.720;2022-07-23T12:30:18;7.10;;;6.40;;
3006;SDS011;1513;47.650;10.720;2022-07-23T12:33:48;7.10;;;6.40;;
3006;SDS011;1513;47.650;10.720;2022-07-23T12:36:53;7.60;;;6.83;;
3006;SDS011;1513;47.650;10.720;2022-07-23T12:39:57;7.50;;;6.83;;
3006;SDS011;1513;47.650;10.720;2022-07-23T12:43:03;7.53;;;6.10;;
3006;SDS011;1513;47.650;10.720;2022-07-23T12:46:12;8.37;;;6.90;;
3006;SDS011;1513;47.650;10.720;2022-07-23T12:49:27;7.63;;;6.93;;
3006;SDS011;1513;47.650;10.720;2022-07-23T12:52:31;8.47;;;7.53;;
3006;SDS011;1513;47.650;10.720;2022-07-23T12:55:35;8.57;;;7.63;;
3006;SDS011;1513;47.650;10.720;2022-07-23T12:58:45;8.93;;;7.10;;
3006;SDS011;1513;47.650;10.720;2022-07-23T13:02:00;10.17;;;7.90;;
3006;SDS011;1513;47.650;10.720;2022-07-23T13:05:04;9.00;;;7.77;;
3006;SDS011;1513;47.650;10.720;2022-07-23T13:08:08;8.63;;;7.60;;
3006;SDS011;1513;47.650;10.720;2022-07-23T13:11:12;14.20;;;8.30;;
3006;SDS011;1513;47.650;10.720;2022-07-23T13:14:16;9.07;;;7.47;;
3006;SDS011;1513;47.650;10.720;2022-07-23T13:17:20;9.97;;;8.50;;
3006;SDS011;1513;47.650;10.720;2022-07-23T13:20:24;8.53;;;7.67;;
3006;SDS011;1513;47.650;10.720;2022-07-23T13:23:27;10.30;;;8.60;;
3006;SDS011;1513;47.650;10.720;2022-07-23T13:26:31;8.57;;;7.67;;
3006;SDS011;1513;47.650;10.720;2022-07-23T13:29:35;10.73;;;8.23;;
3006;SDS011;1513;47.650;10.720;2022-07-23T13:32:38;8.93;;;7.57;;
3006;SDS011;1513;47.650;10.720;2022-07-23T13:35:41;8.43;;;7.30;;
3006;SDS011;1513;47.650;10.720;2022-07-23T13:38:45;10.87;;;7.93;;
3006;SDS011;1513;47.650;10.720;2022-07-23T13:41:49;10.23;;;7.70;;
3006;SDS011;1513;47.650;10.720;2022-07-23T13:44:53;8.50;;;7.70;;
3006;SDS011;1513;47.650;10.720;2022-07-23T13:47:57;8.93;;;7.60;;
3006;SDS011;1513;47.650;10.720;2022-07-23T13:51:00;9.70;;;7.90;;
3006;SDS011;1513;47.650;10.720;2022-07-23T13:54:04;9.20;;;8.13;;
3006;SDS011;1513;47.650;10.720;2022-07-23T13:57:07;9.63;;;8.73;;
3006;SDS011;1513;47.650;10.720;2022-07-23T14:00:11;13.07;;;8.37;;
3006;SDS011;1513;47.650;10.720;2022-07-23T14:03:16;10.50;;;9.23;;
3006;SDS011;1513;47.650;10.720;2022-07-23T14:06:20;13.30;;;9.57;;
3006;SDS011;1513;47.650;10.720;2022-07-23T14:09:24;11.33;;;9.23;;
3006;SDS011;1513;47.650;10.720;2022-07-23T14:12:28;10.00;;;9.00;;
3006;SDS011;1513;47.650;10.720;2022-07-23T14:15:32;12.23;;;9.70;;
3006;SDS011;1513;47.650;10.720;2022-07-23T14:18:36;11.60;;;9.37;;
3006;SDS011;1513;47.650;10.720;2022-07-23T14:21:40;11.10;;;9.90;;
3006;SDS011;1513;47.650;10.720;2022-07-23T14:24:44;11.37;;;8.93;;
3006;SDS011;1513;47.650;10.720;2022-07-23T14:27:48;10.03;;;8.17;;
3006;SDS011;1513;47.650;10.720;2022-07-23T14:30:51;10.40;;;8.60;;
3006;SDS011;1513;47.650;10.720;2022-07-23T14:33:54;12.57;;;9.50;;
3006;SDS011;1513;47.650;10.720;2022-07-23T14:36:58;10.63;;;9.53;;
3006;SDS011;1513;47.650;10.720;2022-07-23T14:40:02;10.30;;;9.20;;
3006;SDS011;1513;47.650;10.720;2022-07-23T14:43:06;14.23;;;9.13;;
3006;SDS011;1513;47.650;10.720;2022-07-23T14:46:11;10.80;;;8.67;;
3006;SDS011;1513;47.650;10.720;2022-07-23T14:49:15;9.37;;;8.37;;
3006;SDS011;1513;47.650;10.720;2022-07-23T14:52:18;13.07;;;9.23;;
3006;SDS011;1513;47.650;10.720;2022-07-23T14:55:22;9.77;;;8.77;;
3006;SDS011;1513;47.650;10.720;2022-07-23T14:58:25;11.60;;;9.57;;
3006;SDS011;1513;47.650;10.720;2022-07-23T15:01:29;9.00;;;8.10;;
3006;SDS011;1513;47.650;10.720;2022-07-23T15:04:32;10.60;;;9.47;;
3006;SDS011;1513;47.650;10.720;2022-07-23T15:07:36;11.10;;;8.80;;
3006;SDS011;1513;47.650;10.720;2022-07-23T15:10:40;11.93;;;9.10;;
3006;SDS011;1513;47.650;10.720;2022-07-23T15:13:43;9.90;;;9.00;;
3006;SDS011;1513;47.650;10.720;2022-07-23T15:16:47;12.73;;;9.93;;
3006;SDS011;1513;47.650;10.720;2022-07-23T15:19:51;11.53;;;9.10;;
3006;SDS011;1513;47.650;10.720;2022-07-23T15:22:55;9.60;;;8.60;;
3006;SDS011;1513;47.650;10.720;2022-07-23T15:25:59;11.00;;;8.47;;
3006;SDS011;1513;47.650;10.720;2022-07-23T15:29:03;9.97;;;8.83;;
3006;SDS011;1513;47.650;10.720;2022-07-23T15:32:08;10.50;;;9.07;;
3006;SDS011;1513;47.650;10.720;2022-07-23T15:35:12;10.77;;;9.17;;
3006;SDS011;1513;47.650;10.720;2022-07-23T15:38:16;9.73;;;8.37;;
3006;SDS011;1513;47.650;10.720;2022-07-23T15:41:19;8.93;;;8.03;;
3006;SDS011;1513;47.650;10.720;2022-07-23T15:44:23;10.97;;;8.43;;
3006;SDS011;1513;47.650;10.720;2022-07-23T15:47:27;14.73;;;8.67;;
3006;SDS011;1513;47.650;10.720;2022-07-23T15:50:31;10.10;;;8.67;;
3006;SDS011;1513;47.650;10.720;2022-07-23T15:53:35;11.77;;;8.20;;
3006;SDS011;1513;47.650;10.720;2022-07-23T15:56:38;13.03;;;9.50;;
3006;SDS011;1513;47.650;10.720;2022-07-23T15:59:42;10.70;;;9.60;;
3006;SDS011;1513;47.650;10.720;2022-07-23T16:02:46;11.23;;;10.03;;
3006;SDS011;1513;47.650;10.720;2022-07-23T16:05:49;11.50;;;9.23;;
3006;SDS011;1513;47.650;10.720;2022-07-23T16:08:53;11.93;;;9.57;;
3006;SDS011;1513;47.650;10.720;2022-07-23T16:11:56;11.10;;;9.57;;
3006;SDS011;1513;47.650;10.720;2022-07-23T16:15:00;12.80;;;10.53;;
3006;SDS011;1513;47.650;10.720;2022-07-23T16:18:03;11.77;;;10.03;;
3006;SDS011;1513;47.650;10.720;2022-07-23T16:21:07;12.67;;;9.57;;
3006;SDS011;1513;47.650;10.720;2022-07-23T16:24:11;11.80;;;10.60;;
3006;SDS011;1513;47.650;10.720;2022-07-23T16:27:14;11.50;;;10.30;;
3006;SDS011;1513;47.650;10.720;2022-07-23T16:30:18;11.67;;;10.07;;
3006;SDS011;1513;47.650;10.720;2022-07-23T16:33:21;14.60;;;12.03;;
3006;SDS011;1513;47.650;10.720;2022-07-23T16:36:25;15.17;;;11.00;;
3006;SDS011;1513;47.650;10.720;2022-07-23T16:39:29;16.63;;;11.77;;
3006;SDS011;1513;47.650;10.720;2022-07-23T16:42:32;14.60;;;10.53;;
3006;SDS011;1513;47.650;10.720;2022-07-23T16:45:36;13.50;;;11.20;;
3006;SDS011;1513;47.650;10.720;2022-07-23T16:48:40;20.80;;;13.93;;
3006;SDS011;1513;47.650;10.720;2022-07-23T16:51:43;16.03;;;11.40;;
3006;SDS011;1513;47.650;10.720;2022-07-23T16:54:47;14.87;;;11.37;;
3006;SDS011;1513;47.650;10.720;2022-07-23T16:57:51;21.83;;;15.10;;
3006;SDS011;1513;47.650;10.720;2022-07-23T17:00:55;18.17;;;13.80;;
3006;SDS011;1513;47.650;10.720;2022-07-23T17:03:58;24.80;;;16.10;;
3006;SDS011;1513;47.650;10.720;2022-07-23T17:07:02;31.97;;;18.20;;
3006;SDS011;1513;47.650;10.720;2022-07-23T17:10:08;40.67;;;25.83;;
3006;SDS011;1513;47.650;10.720;2022-07-23T17:13:12;27.97;;;20.00;;
3006;SDS011;1513;47.650;10.720;2022-07-23T17:16:16;14.67;;;12.00;;
3006;SDS011;1513;47.650;10.720;2022-07-23T17:19:20;14.40;;;11.87;;
3006;SDS011;1513;47.650;10.720;2022-07-23T17:22:24;11.50;;;10.33;;
3006;SDS011;1513;47.650;10.720;2022-07-23T17:25:27;13.40;;;10.93;;
3006;SDS011;1513;47.650;10.720;2022-07-23T17:28:30;13.40;;;11.50;;
3006;SDS011;1513;47.650;10.720;2022-07-23T17:31:34;17.33;;;11.00;;
3006;SDS011;1513;47.650;10.720;2022-07-23T17:34:37;13.40;;;11.57;;
3006;SDS011;1513;47.650;10.720;2022-07-23T17:37:41;14.73;;;11.80;;
3006;SDS011;1513;47.650;10.720;2022-07-23T17:40:45;15.80;;;11.87;;
3006;SDS011;1513;47.650;10.720;2022-07-23T17:43:48;13.73;;;11.50;;
3006;SDS011;1513;47.650;10.720;2022-07-23T17:46:52;15.07;;;12.23;;
3006;SDS011;1513;47.650;10.720;2022-07-23T17:49:55;14.50;;;11.20;;
3006;SDS011;1513;47.650;10.720;2022-07-23T17:53:00;14.70;;;10.93;;
3006;SDS011;1513;47.650;10.720;2022-07-23T17:56:04;20.27;;;10.90;;
3006;SDS011;1513;47.650;10.720;2022-07-23T17:59:08;15.20;;;11.70;;
3006;SDS011;1513;47.650;10.720;2022-07-23T18:02:12;17.80;;;11.90;;
3006;SDS011;1513;47.650;10.720;2022-07-23T18:05:15;15.20;;;10.20;;
3006;SDS011;1513;47.650;10.720;2022-07-23T18:08:19;11.47;;;10.33;;
3006;SDS011;1513;47.650;10.720;2022-07-23T18:11:23;14.33;;;10.73;;
3006;SDS011;1513;47.650;10.720;2022-07-23T18:14:26;14.30;;;12.03;;
3006;SDS011;1513;47.650;10.720;2022-07-23T18:17:31;12.20;;;10.90;;
3006;SDS011;1513;47.650;10.720;2022-07-23T18:20:36;13.20;;;10.80;;
3006;SDS011;1513;47.650;10.720;2022-07-23T18:23:39;13.10;;;11.70;;
3006;SDS011;1513;47.650;10.720;2022-07-23T18:26:43;12.97;;;11.50;;
3006;SDS011;1513;47.650;10.720;2022-07-23T18:29:46;14.20;;;11.30;;
3006;SDS011;1513;47.650;10.720;2022-07-23T18:32:50;12.40;;;10.90;;
3006;SDS011;1513;47.650;10.720;2022-07-23T18:35:54;13.53;;;10.97;;
3006;SDS011;1513;47.650;10.720;2022-07-23T18:38:57;14.27;;;10.20;;
3006;SDS011;1513;47.650;10.720;2022-07-23T18:42:02;16.10;;;12.87;;
3006;SDS011;1513;47.650;10.720;2022-07-23T18:45:07;18.30;;;11.40;;
3006;SDS011;1513;47.650;10.720;2022-07-23T18:48:11;12.97;;;11.57;;
3006;SDS011;1513;47.650;10.720;2022-07-23T18:51:17;14.13;;;12.27;;
3006;SDS011;1513;47.650;10.720;2022-07-23T18:54:21;16.27;;;13.07;;
3006;SDS011;1513;47.650;10.720;2022-07-23T18:57:25;22.20;;;13.63;;